createdAt,value
2023-03-21T00:00:48.366Z,4.07
2023-03-21T00:03:16.370Z,4.28
2023-03-21T00:05:51.888Z,4.37
2023-03-21T00:08:21.249Z,5.35
2023-03-21T00:10:56.241Z,3.50
2023-03-21T00:16:05.363Z,4.37
2023-03-21T00:18:42.419Z,2.78
2023-03-21T00:24:04.741Z,4.18
2023-03-21T00:26:32.702Z,3.03
2023-03-21T00:29:00.315Z,3.75
2023-03-21T00:31:28.014Z,2.62
2023-03-21T00:33:55.509Z,3.37
2023-03-21T00:36:26.065Z,3.05
2023-03-21T00:38:54.570Z,3.95
2023-03-21T00:41:38.945Z,3.70
2023-03-21T00:44:09.879Z,2.60
2023-03-21T00:46:47.027Z,3.78
2023-03-21T00:49:20.926Z,3.60
2023-03-21T00:51:51.341Z,3.35
2023-03-21T00:54:19.606Z,2.58
2023-03-21T00:56:47.010Z,3.30
2023-03-21T00:59:14.404Z,4.22
2023-03-21T01:01:43.750Z,3.35
2023-03-21T01:04:14.580Z,2.42
2023-03-21T01:06:43.456Z,3.70
2023-03-21T01:09:17.145Z,3.05
2023-03-21T01:11:45.488Z,4.10
2023-03-21T01:14:22.437Z,2.90
2023-03-21T01:16:53.200Z,2.90
2023-03-21T01:19:31.006Z,3.15
2023-03-21T01:22:06.460Z,3.22
2023-03-21T01:24:35.672Z,2.37
2023-03-21T01:27:06.000Z,3.42
2023-03-21T01:29:33.460Z,3.30
2023-03-21T01:32:01.407Z,2.60
2023-03-21T01:34:29.962Z,3.47
2023-03-21T01:36:57.548Z,3.20
2023-03-21T01:39:25.208Z,3.65
2023-03-21T01:41:52.879Z,2.83
2023-03-21T01:44:20.758Z,3.05
2023-03-21T01:47:11.534Z,3.85
2023-03-21T01:49:45.968Z,2.55
2023-03-21T01:52:29.802Z,3.80
2023-03-21T01:55:05.465Z,2.12
2023-03-21T01:57:49.207Z,3.12
2023-03-21T02:00:20.728Z,3.03
2023-03-21T02:02:58.044Z,4.05
2023-03-21T02:05:40.269Z,4.03
2023-03-21T02:08:08.392Z,3.65
2023-03-21T02:10:36.950Z,1.85
2023-03-21T02:13:09.512Z,2.60
2023-03-21T02:15:39.314Z,2.42
2023-03-21T02:18:30.243Z,4.37
2023-03-21T02:21:33.189Z,2.70
2023-03-21T02:24:21.408Z,3.20
2023-03-21T02:27:03.901Z,3.17
2023-03-21T02:29:44.147Z,2.78
2023-03-21T02:32:42.364Z,2.47
2023-03-21T02:35:28.122Z,3.03
2023-03-21T02:38:11.230Z,2.12
2023-03-21T02:41:05.340Z,3.60
2023-03-21T02:43:45.278Z,2.78
2023-03-21T02:46:28.294Z,2.20
2023-03-21T02:49:02.335Z,2.17
2023-03-21T02:51:31.255Z,2.85
2023-03-21T02:54:26.541Z,3.33
2023-03-21T02:56:52.521Z,2.92
2023-03-21T02:59:23.035Z,3.03
2023-03-21T03:01:55.078Z,2.42
2023-03-21T03:04:28.204Z,3.05
2023-03-21T03:06:58.911Z,2.35
2023-03-21T03:09:45.113Z,2.05
2023-03-21T03:12:19.305Z,2.05
2023-03-21T03:15:11.748Z,2.72
2023-03-21T03:17:46.236Z,2.70
2023-03-21T03:20:19.739Z,3.75
2023-03-21T03:23:12.224Z,3.20
2023-03-21T03:26:00.803Z,2.37
2023-03-21T03:28:33.233Z,2.87
2023-03-21T03:31:09.266Z,2.45
2023-03-21T03:33:41.766Z,2.60
2023-03-21T03:36:21.435Z,2.58
2023-03-21T03:38:57.816Z,2.67
2023-03-21T03:41:29.406Z,1.85
2023-03-21T03:43:59.713Z,1.95
2023-03-21T03:46:33.436Z,2.58
2023-03-21T03:49:24.926Z,2.08
2023-03-21T03:51:59.908Z,2.00
2023-03-21T03:54:32.876Z,2.60
2023-03-21T03:57:01.431Z,2.28
2023-03-21T03:59:29.171Z,1.62
2023-03-21T04:01:57.176Z,1.60
2023-03-21T04:04:28.674Z,2.60
2023-03-21T04:06:58.038Z,2.58
2023-03-21T04:09:41.157Z,2.05
2023-03-21T04:12:12.922Z,2.08
2023-03-21T04:14:45.761Z,2.17
2023-03-21T04:17:15.549Z,2.33
2023-03-21T04:19:43.255Z,1.95
2023-03-21T04:22:10.823Z,2.25
2023-03-21T04:24:39.938Z,1.92
2023-03-21T04:27:07.748Z,1.92
2023-03-21T04:29:35.770Z,2.20
2023-03-21T04:32:04.386Z,1.87
2023-03-21T04:34:32.180Z,2.45
2023-03-21T04:37:00.213Z,2.55
2023-03-21T04:39:27.816Z,2.03
2023-03-21T04:41:55.759Z,2.90
2023-03-21T04:44:23.239Z,2.20
2023-03-21T04:46:51.790Z,2.00
2023-03-21T04:49:19.454Z,1.87
2023-03-21T04:51:46.880Z,3.60
2023-03-21T04:56:42.923Z,3.22
2023-03-21T04:59:13.016Z,2.65
2023-03-21T05:01:41.328Z,2.05
2023-03-21T05:04:10.821Z,1.58
2023-03-21T05:06:38.974Z,2.45
2023-03-21T05:09:07.131Z,3.03
2023-03-21T05:11:41.081Z,1.75
2023-03-21T05:14:12.354Z,1.92
2023-03-21T05:16:45.087Z,2.58
2023-03-21T05:19:13.879Z,3.00
2023-03-21T05:21:42.755Z,3.90
2023-03-21T05:24:15.087Z,2.70
2023-03-21T05:26:44.198Z,2.58
2023-03-21T05:29:13.359Z,3.40
2023-03-21T05:31:41.222Z,3.10
2023-03-21T05:34:09.498Z,3.28
2023-03-21T05:36:37.379Z,2.65
2023-03-21T05:39:06.207Z,3.08
2023-03-21T05:41:34.531Z,3.55
2023-03-21T05:44:03.789Z,2.62
2023-03-21T05:46:31.595Z,2.85
2023-03-21T05:48:59.722Z,2.78
2023-03-21T05:51:27.988Z,2.28
2023-03-21T05:53:56.146Z,2.80
2023-03-21T05:56:23.976Z,2.58
2023-03-21T05:58:51.664Z,2.80
2023-03-21T06:01:19.527Z,3.28
2023-03-21T06:03:47.776Z,3.92
2023-03-21T06:06:16.071Z,2.92
2023-03-21T06:08:43.872Z,2.40
2023-03-21T06:11:24.992Z,2.35
2023-03-21T06:13:53.927Z,2.75
2023-03-21T06:16:22.828Z,2.92
2023-03-21T06:18:50.481Z,3.90
2023-03-21T06:21:18.419Z,3.22
2023-03-21T06:23:46.969Z,2.58
2023-03-21T06:26:14.380Z,3.03
2023-03-21T06:28:41.948Z,3.50
2023-03-21T06:31:09.660Z,2.60
2023-03-21T06:33:37.157Z,2.87
2023-03-21T06:36:05.012Z,3.22
2023-03-21T06:38:32.768Z,3.95
2023-03-21T06:41:00.397Z,3.37
2023-03-21T06:43:28.813Z,3.08
2023-03-21T06:45:56.628Z,3.15
2023-03-21T06:48:24.396Z,3.40
2023-03-21T06:50:52.358Z,3.58
2023-03-21T06:53:24.389Z,4.25
2023-03-21T06:55:54.984Z,2.30
2023-03-21T06:58:23.245Z,3.78
2023-03-21T07:00:51.168Z,2.92
2023-03-21T07:03:19.291Z,3.67
2023-03-21T07:05:48.154Z,3.55
2023-03-21T07:08:16.250Z,2.30
2023-03-21T07:10:45.507Z,3.15
2023-03-21T07:13:14.148Z,3.22
2023-03-21T07:15:42.040Z,3.33
2023-03-21T07:18:10.454Z,2.60
2023-03-21T07:20:38.194Z,2.83
2023-03-21T07:23:06.366Z,3.50
2023-03-21T07:25:34.444Z,3.33
2023-03-21T07:28:03.023Z,3.90
2023-03-21T07:30:30.647Z,4.62
2023-03-21T07:32:58.107Z,2.15
2023-03-21T07:35:25.944Z,2.87
2023-03-21T07:37:54.085Z,3.72
2023-03-21T07:40:21.639Z,3.10
2023-03-21T07:42:50.877Z,4.25
2023-03-21T07:45:22.074Z,3.70
2023-03-21T07:47:50.044Z,2.58
2023-03-21T07:50:18.048Z,3.85
2023-03-21T07:52:46.230Z,3.85
2023-03-21T07:55:13.900Z,2.58
2023-03-21T07:57:41.374Z,3.83
2023-03-21T08:00:09.486Z,5.87
2023-03-21T08:02:40.304Z,3.53
2023-03-21T08:05:08.415Z,3.87
2023-03-21T08:07:36.089Z,6.05
2023-03-21T08:10:03.820Z,5.05
2023-03-21T08:12:31.540Z,5.55
2023-03-21T08:15:01.056Z,6.25
2023-03-21T08:17:29.045Z,5.53
2023-03-21T08:19:56.709Z,5.35
2023-03-21T08:22:24.099Z,6.05
2023-03-21T08:24:51.481Z,5.97
2023-03-21T08:27:20.736Z,5.90
2023-03-21T08:29:48.102Z,5.50
2023-03-21T08:32:18.870Z,3.83
2023-03-21T08:34:46.796Z,4.82
2023-03-21T08:37:14.173Z,4.65
2023-03-21T08:39:41.608Z,5.53
2023-03-21T08:42:09.263Z,5.65
2023-03-21T08:44:38.951Z,4.87
2023-03-21T08:47:06.603Z,3.92
2023-03-21T08:49:37.605Z,5.40
2023-03-21T08:52:06.219Z,4.55
2023-03-21T08:54:33.944Z,5.47
2023-03-21T08:57:01.553Z,3.65
2023-03-21T08:59:28.964Z,3.65
2023-03-21T09:01:56.646Z,4.55
2023-03-21T09:04:26.003Z,4.95
2023-03-21T09:06:56.268Z,5.93
2023-03-21T09:09:24.000Z,4.18
2023-03-21T09:11:52.593Z,4.00
2023-03-21T09:14:21.880Z,5.65
2023-03-21T09:16:52.124Z,3.42
2023-03-21T09:19:19.866Z,3.83
2023-03-21T09:21:47.836Z,4.10
2023-03-21T09:24:15.596Z,4.47
2023-03-21T09:26:44.024Z,5.72
2023-03-21T09:29:11.574Z,4.07
2023-03-21T09:31:40.142Z,3.65
2023-03-21T09:34:07.713Z,4.35
2023-03-21T09:36:36.154Z,4.50
2023-03-21T09:39:04.767Z,3.87
2023-03-21T09:41:45.269Z,5.00
2023-03-21T09:44:25.399Z,5.97
2023-03-21T09:46:59.093Z,4.10
2023-03-21T09:49:42.174Z,3.97
2023-03-21T09:52:13.860Z,5.07
2023-03-21T09:54:45.750Z,3.35
2023-03-21T09:57:21.866Z,3.70
2023-03-21T09:59:51.036Z,4.75
2023-03-21T10:02:49.585Z,3.90
2023-03-21T10:05:23.672Z,3.12
2023-03-21T10:07:55.815Z,3.92
2023-03-21T10:10:27.870Z,3.40
2023-03-21T10:12:56.380Z,4.22
2023-03-21T10:15:26.903Z,3.08
2023-03-21T10:18:03.002Z,2.37
2023-03-21T10:20:36.031Z,2.15
2023-03-21T10:23:06.718Z,3.00
2023-03-21T10:25:40.865Z,2.67
2023-03-21T10:28:17.043Z,2.65
2023-03-21T10:30:47.195Z,3.15
2023-03-21T10:33:18.146Z,4.95
2023-03-21T10:35:50.638Z,2.47
2023-03-21T10:38:20.787Z,3.17
2023-03-21T10:40:48.549Z,2.83
2023-03-21T10:43:19.145Z,2.90
2023-03-21T10:45:48.343Z,2.62
2023-03-21T10:48:16.313Z,2.58
2023-03-21T10:50:46.950Z,2.53
2023-03-21T10:53:21.642Z,2.70
2023-03-21T10:58:25.283Z,2.40
2023-03-21T11:00:58.345Z,2.00
2023-03-21T11:03:32.303Z,2.40
2023-03-21T11:06:06.712Z,1.85
2023-03-21T11:08:43.857Z,2.17
2023-03-21T11:11:20.409Z,2.87
2023-03-21T11:13:57.037Z,1.87
2023-03-21T11:16:39.728Z,2.20
2023-03-21T11:19:20.542Z,2.97
2023-03-21T11:21:48.372Z,2.15
2023-03-21T11:24:19.422Z,2.25
2023-03-21T11:26:49.608Z,3.25
2023-03-21T11:29:23.370Z,2.37
2023-03-21T11:31:50.871Z,1.58
2023-03-21T11:34:47.933Z,2.87
2023-03-21T11:37:21.168Z,3.22
2023-03-21T11:39:55.031Z,1.85
2023-03-21T11:42:31.360Z,2.17
2023-03-21T11:45:28.394Z,2.35
2023-03-21T11:47:58.409Z,2.65
2023-03-21T11:50:36.289Z,2.00
2023-03-21T11:53:12.736Z,1.98
2023-03-21T11:55:43.017Z,1.83
2023-03-21T11:58:16.481Z,1.75
2023-03-21T12:01:19.217Z,2.05
2023-03-21T12:04:24.209Z,2.62
2023-03-21T12:07:17.425Z,2.97
2023-03-21T12:09:51.097Z,2.45
2023-03-21T12:12:42.395Z,2.25
2023-03-21T12:15:24.717Z,2.28
2023-03-21T12:18:17.263Z,2.20
2023-03-21T12:20:54.626Z,3.33
2023-03-21T12:23:46.769Z,2.22
2023-03-21T12:26:33.112Z,3.08
2023-03-21T12:29:19.360Z,2.80
2023-03-21T12:31:54.791Z,1.87
2023-03-21T12:34:37.288Z,2.25
2023-03-21T12:37:13.703Z,2.33
2023-03-21T12:39:41.279Z,3.15
2023-03-21T12:42:45.650Z,2.30
2023-03-21T12:45:17.339Z,1.90
2023-03-21T12:47:49.954Z,2.08
2023-03-21T12:50:27.698Z,2.37
2023-03-21T12:53:02.012Z,1.90
2023-03-21T12:55:34.579Z,2.37
2023-03-21T12:58:18.363Z,1.80
2023-03-21T13:00:51.740Z,1.98
2023-03-21T13:03:33.574Z,1.92
2023-03-21T13:06:07.438Z,2.00
2023-03-21T13:08:38.325Z,1.15
2023-03-21T13:11:06.865Z,1.65
2023-03-21T13:13:36.628Z,1.52
2023-03-21T13:16:27.050Z,1.33
2023-03-21T13:19:06.396Z,1.23
2023-03-21T13:22:11.584Z,1.10
2023-03-21T13:24:43.954Z,1.23
2023-03-21T13:27:22.300Z,1.05
2023-03-21T13:30:14.302Z,1.42
2023-03-21T13:32:43.827Z,1.65
2023-03-21T13:35:27.860Z,1.12
2023-03-21T13:38:19.105Z,1.30
2023-03-21T13:40:58.647Z,1.20
2023-03-21T13:43:53.717Z,1.30
2023-03-21T13:46:26.925Z,1.20
2023-03-21T13:49:02.833Z,0.82
2023-03-21T13:51:36.155Z,0.85
2023-03-21T13:54:06.601Z,0.90
2023-03-21T13:56:52.316Z,1.15
2023-03-21T13:59:38.881Z,1.00
2023-03-21T14:02:15.402Z,1.10
2023-03-21T14:05:00.214Z,1.42
2023-03-21T14:07:36.742Z,1.23
2023-03-21T14:10:08.512Z,1.08
2023-03-21T14:12:40.856Z,1.35
2023-03-21T14:15:24.143Z,1.73
2023-03-21T14:17:51.623Z,1.73
2023-03-21T14:20:23.446Z,2.28
2023-03-21T14:22:51.170Z,1.20
2023-03-21T14:25:21.535Z,1.45
2023-03-21T14:27:52.624Z,1.27
2023-03-21T14:30:24.676Z,1.70
2023-03-21T14:32:56.089Z,1.50
2023-03-21T14:35:23.832Z,1.77
2023-03-21T14:37:51.456Z,1.48
2023-03-21T14:40:25.706Z,1.55
2023-03-21T14:42:54.299Z,2.35
2023-03-21T14:45:24.937Z,1.83
2023-03-21T14:47:55.942Z,1.90
2023-03-21T14:50:29.843Z,1.02
2023-03-21T14:52:58.345Z,1.35
2023-03-21T14:55:26.347Z,1.08
2023-03-21T14:57:55.687Z,1.42
2023-03-21T15:00:30.039Z,1.67
2023-03-21T15:02:58.976Z,1.17
2023-03-21T15:05:30.314Z,1.83
2023-03-21T15:08:09.314Z,1.23
2023-03-21T15:10:38.579Z,1.50
2023-03-21T15:13:20.915Z,1.65
2023-03-21T15:15:48.829Z,1.73
2023-03-21T15:18:23.083Z,1.92
2023-03-21T15:20:51.370Z,1.65
2023-03-21T15:23:31.788Z,1.85
2023-03-21T15:26:02.181Z,1.90
2023-03-21T15:28:29.670Z,2.80
2023-03-21T15:30:57.185Z,1.65
2023-03-21T15:33:25.627Z,1.65
2023-03-21T15:35:55.847Z,1.25
2023-03-21T15:38:37.269Z,1.45
2023-03-21T15:41:20.134Z,1.27
2023-03-21T15:43:59.657Z,1.85
2023-03-21T15:46:48.231Z,2.12
2023-03-21T15:49:16.020Z,2.10
2023-03-21T15:51:47.824Z,1.87
2023-03-21T15:54:19.114Z,2.35
2023-03-21T15:56:46.817Z,1.65
2023-03-21T15:59:17.940Z,1.73
2023-03-21T16:01:47.233Z,2.25
2023-03-21T16:04:18.415Z,1.75
2023-03-21T16:07:01.467Z,1.80
2023-03-21T16:09:40.010Z,1.75
2023-03-21T16:12:12.250Z,1.60
2023-03-21T16:14:40.884Z,1.95
2023-03-21T16:17:27.784Z,2.17
2023-03-21T16:19:55.459Z,1.62
2023-03-21T16:22:23.136Z,1.65
2023-03-21T16:24:50.748Z,1.17
2023-03-21T16:27:19.632Z,1.27
2023-03-21T16:29:47.088Z,1.70
2023-03-21T16:32:16.286Z,1.65
2023-03-21T16:34:44.590Z,1.50
2023-03-21T16:37:12.684Z,1.35
2023-03-21T16:39:40.363Z,2.40
2023-03-21T16:42:10.896Z,1.67
2023-03-21T16:44:39.555Z,2.15
2023-03-21T16:47:18.337Z,1.62
2023-03-21T16:49:46.033Z,1.90
2023-03-21T16:52:14.783Z,2.20
2023-03-21T16:54:42.721Z,1.62
2023-03-21T16:57:28.488Z,1.70
2023-03-21T17:02:25.399Z,1.77
2023-03-21T17:04:52.847Z,2.00
2023-03-21T17:07:20.380Z,1.62
2023-03-21T17:09:48.228Z,2.28
2023-03-21T17:12:17.808Z,1.75
2023-03-21T17:14:45.604Z,1.95
2023-03-21T17:17:15.483Z,2.45
2023-03-21T17:19:43.219Z,2.37
2023-03-21T17:22:13.309Z,2.00
2023-03-21T17:24:42.261Z,2.30
2023-03-21T17:27:14.149Z,1.55
2023-03-21T17:29:41.866Z,1.92
2023-03-21T17:32:09.520Z,2.15
2023-03-21T17:34:37.140Z,2.60
2023-03-21T17:37:05.008Z,2.12
2023-03-21T17:39:32.577Z,2.25
2023-03-21T17:42:00.054Z,1.70
2023-03-21T17:44:27.712Z,1.67
2023-03-21T17:46:55.421Z,2.08
2023-03-21T17:49:23.060Z,2.47
2023-03-21T17:51:51.959Z,2.58
2023-03-21T17:54:19.532Z,3.28
2023-03-21T17:56:47.350Z,3.33
2023-03-21T17:59:15.821Z,3.50
2023-03-21T18:01:43.438Z,3.55
2023-03-21T18:04:11.253Z,3.72
2023-03-21T18:06:39.265Z,2.60
2023-03-21T18:09:11.284Z,3.25
2023-03-21T18:11:40.305Z,2.87
2023-03-21T18:14:16.340Z,2.72
2023-03-21T18:16:47.374Z,3.28
2023-03-21T18:19:14.969Z,3.60
2023-03-21T18:21:45.269Z,2.85
2023-03-21T18:24:14.347Z,2.45
2023-03-21T18:26:43.207Z,3.05
2023-03-21T18:32:06.696Z,4.10
2023-03-21T18:34:36.722Z,2.30
2023-03-21T18:37:07.631Z,2.55
2023-03-21T18:39:35.550Z,3.28
2023-03-21T18:42:05.909Z,3.60
2023-03-21T18:44:39.970Z,3.97
2023-03-21T18:47:08.501Z,3.30
2023-03-21T18:52:26.425Z,2.28
2023-03-21T18:54:54.524Z,3.12
2023-03-21T18:57:38.875Z,2.65
2023-03-21T19:00:13.583Z,2.42
2023-03-21T19:02:47.711Z,2.27
2023-03-21T19:05:17.978Z,3.05
2023-03-21T19:07:46.518Z,3.25
2023-03-21T19:10:18.913Z,2.80
2023-03-21T19:12:48.818Z,2.85
2023-03-21T19:15:21.657Z,3.50
2023-03-21T19:20:46.046Z,2.30
2023-03-21T19:23:14.173Z,1.92
2023-03-21T19:25:42.803Z,2.85
2023-03-21T19:28:10.851Z,3.42
2023-03-21T19:30:39.209Z,3.40
2023-03-21T19:33:08.441Z,2.92
2023-03-21T19:35:40.857Z,2.70
2023-03-21T19:38:11.768Z,2.58
2023-03-21T19:40:41.044Z,2.97
2023-03-21T19:43:31.233Z,3.30
2023-03-21T19:45:58.019Z,2.80
2023-03-21T19:48:27.237Z,4.03
2023-03-21T19:51:26.410Z,1.92
2023-03-21T19:53:44.082Z,2.85
2023-03-21T19:56:21.556Z,2.17
2023-03-21T19:58:50.532Z,1.87
2023-03-21T20:01:18.456Z,2.58
2023-03-21T20:03:46.215Z,2.30
2023-03-21T20:06:13.909Z,2.50
2023-03-21T20:09:17.210Z,2.72
2023-03-21T20:11:30.329Z,2.65
2023-03-21T20:13:59.762Z,1.98
2023-03-21T20:16:34.187Z,3.28
2023-03-21T20:19:09.081Z,1.70
2023-03-21T20:21:48.165Z,2.70
2023-03-21T20:24:20.100Z,2.35
2023-03-21T20:26:49.338Z,2.42
2023-03-21T20:30:07.016Z,2.80
2023-03-21T20:32:05.048Z,2.22
2023-03-21T20:34:33.026Z,2.42
2023-03-21T20:37:01.026Z,3.08
2023-03-21T20:39:29.978Z,2.50
2023-03-21T20:41:59.399Z,1.95
2023-03-21T20:44:57.176Z,2.42
2023-03-21T20:47:18.716Z,2.28
2023-03-21T20:49:46.482Z,1.67
2023-03-21T20:52:54.442Z,2.15
2023-03-21T20:55:03.406Z,1.40
2023-03-21T20:57:31.452Z,1.85
2023-03-21T20:59:58.896Z,1.92
2023-03-21T21:02:26.735Z,2.92
2023-03-21T21:05:24.311Z,2.72
2023-03-21T21:07:44.035Z,2.97
2023-03-21T21:10:14.420Z,2.12
2023-03-21T21:12:45.251Z,2.30
2023-03-21T21:15:16.255Z,2.22
2023-03-21T21:18:04.956Z,2.83
2023-03-21T21:20:33.675Z,1.37
2023-03-21T21:23:01.284Z,1.60
2023-03-21T21:25:31.823Z,2.75
2023-03-21T21:28:01.693Z,2.47
2023-03-21T21:30:30.334Z,2.08
2023-03-21T21:33:00.835Z,2.35
2023-03-21T21:35:28.849Z,3.33
2023-03-21T21:37:56.497Z,3.70
2023-03-21T21:40:24.257Z,2.20
2023-03-21T21:42:52.129Z,2.97
2023-03-21T21:45:20.189Z,3.17
2023-03-21T21:47:47.672Z,2.67
2023-03-21T21:50:15.421Z,2.45
2023-03-21T21:52:43.973Z,4.65
2023-03-21T21:55:13.197Z,3.25
2023-03-21T21:57:41.035Z,3.42
2023-03-21T22:00:13.540Z,2.50
2023-03-21T22:02:42.825Z,2.37
2023-03-21T22:05:10.757Z,3.28
2023-03-21T22:07:38.240Z,2.45
2023-03-21T22:10:06.679Z,2.03
2023-03-21T22:12:34.458Z,2.78
2023-03-21T22:15:02.392Z,3.83
2023-03-21T22:17:30.909Z,3.15
2023-03-21T22:20:05.760Z,1.95
2023-03-21T22:22:34.621Z,2.17
2023-03-21T22:25:06.400Z,3.20
2023-03-21T22:27:34.477Z,2.20
2023-03-21T22:30:04.798Z,2.25
2023-03-21T22:32:34.005Z,1.70
2023-03-21T22:35:04.848Z,3.15
2023-03-21T22:37:33.687Z,2.80
2023-03-21T22:40:01.342Z,2.33
2023-03-21T22:42:29.056Z,2.75
2023-03-21T22:44:56.479Z,3.75
2023-03-21T22:47:24.082Z,3.28
2023-03-21T22:49:52.264Z,2.97
2023-03-21T22:52:19.839Z,4.12
2023-03-21T22:54:49.133Z,2.60
2023-03-21T22:57:17.294Z,2.97
2023-03-21T22:59:44.656Z,4.65
2023-03-21T23:02:12.396Z,2.20
2023-03-21T23:04:40.276Z,3.85
2023-03-21T23:07:08.162Z,3.08
2023-03-21T23:09:35.971Z,3.37
2023-03-21T23:12:03.866Z,4.50
2023-03-21T23:14:31.257Z,3.00
2023-03-21T23:17:00.141Z,4.55
2023-03-21T23:19:28.854Z,4.30
2023-03-21T23:21:56.735Z,4.30
2023-03-21T23:24:24.264Z,4.15
2023-03-21T23:26:51.961Z,4.72
2023-03-21T23:29:19.366Z,3.12
2023-03-21T23:31:46.937Z,4.07
2023-03-21T23:34:14.737Z,4.22
2023-03-21T23:36:42.295Z,3.25
2023-03-21T23:39:10.070Z,3.50
2023-03-21T23:41:37.792Z,3.62
2023-03-21T23:44:05.530Z,2.87
2023-03-21T23:46:33.075Z,3.30
2023-03-21T23:49:01.035Z,3.42
2023-03-21T23:51:28.471Z,4.28
2023-03-21T23:53:57.178Z,3.70
2023-03-21T23:56:26.034Z,3.00
2023-03-21T23:58:53.494Z,2.95
